Time;durP1;ratioP1;P1;durP2;ratioP2;P2;SDS_P1;SDS_P2;PMS_P1;PMS_P2;Temp;Humidity;BMP_temperature;BMP_pressure;BME280_temperature;BME280_humidity;BME280_pressure;Samples;Min_cycle;Max_cycle;Signal;HPM_P1;HPM_P2
2024/04/22 00:01:53;;;;;;;;;0.00;0.00;;;;;;;;5376099;26;8824;-73
2024/04/22 00:04:18;;;;;;;;;0.00;0.00;;;;;;;;5375660;26;8931;-72
2024/04/22 00:06:45;;;;;;;;;0.00;0.00;;;;;;;;5344547;26;8904;-72
2024/04/22 00:09:11;;;;;;;;;0.25;0.00;;;;;;;;5375926;26;8832;-73
2024/04/22 00:11:36;;;;;;;;;1.25;0.00;;;;;;;;5375449;26;11637;-73
2024/04/22 00:14:02;;;;;;;;;0.00;0.00;;;;;;;;5344187;26;8871;-73
2024/04/22 00:16:27;;;;;;;;;0.00;0.00;;;;;;;;5375453;26;8813;-72
2024/04/22 00:18:52;;;;;;;;;0.25;0.00;;;;;;;;5375076;26;8849;-73
2024/04/22 00:21:17;;;;;;;;;2.00;0.00;;;;;;;;5344229;26;8813;-74
2024/04/22 00:23:43;;;;;;;;;0.00;0.00;;;;;;;;5375204;26;8831;-74
2024/04/22 00:26:08;;;;;;;;;0.00;0.00;;;;;;;;5377748;26;8853;-74
2024/04/22 00:28:37;;;;;;;;;0.00;0.00;;;;;;;;5378673;26;9026;-74
2024/04/22 00:31:05;;;;;;;;;1.00;0.00;;;;;;;;5347502;26;8843;-74
2024/04/22 00:33:33;;;;;;;;;0.00;0.00;;;;;;;;5378289;26;12328;-73
2024/04/22 00:35:59;;;;;;;;;0.00;0.00;;;;;;;;5346882;26;11927;-73
2024/04/22 00:38:25;;;;;;;;;0.00;0.00;;;;;;;;5378238;26;11522;-74
2024/04/22 00:40:50;;;;;;;;;0.00;0.00;;;;;;;;5378069;26;11540;-81
2024/04/22 00:43:18;;;;;;;;;1.00;0.00;;;;;;;;5378845;26;8819;-75
2024/04/22 00:45:44;;;;;;;;;0.00;0.00;;;;;;;;5378125;26;8836;-75
2024/04/22 00:48:10;;;;;;;;;0.00;0.00;;;;;;;;5347044;26;11530;-74
2024/04/22 00:50:35;;;;;;;;;0.00;0.00;;;;;;;;5378290;26;11554;-74
2024/04/22 00:53:02;;;;;;;;;0.00;0.00;;;;;;;;5378491;26;8923;-75
2024/04/22 00:55:27;;;;;;;;;0.00;0.00;;;;;;;;5378631;26;8825;-74
2024/04/22 00:57:56;;;;;;;;;0.00;0.00;;;;;;;;5378120;26;11504;-73
2024/04/22 01:00:21;;;;;;;;;0.50;0.50;;;;;;;;5378111;26;8862;-74
2024/04/22 01:02:49;;;;;;;;;0.00;0.00;;;;;;;;5377734;26;11495;-74
2024/04/22 01:05:14;;;;;;;;;0.00;0.00;;;;;;;;5378159;26;8809;-74
2024/04/22 01:07:39;;;;;;;;;0.00;0.00;;;;;;;;5377876;26;11613;-75
2024/04/22 01:10:05;;;;;;;;;0.00;0.00;;;;;;;;5346597;26;8833;-74
2024/04/22 01:12:32;;;;;;;;;1.00;0.00;;;;;;;;5377941;26;8832;-75
2024/04/22 01:14:58;;;;;;;;;0.00;0.00;;;;;;;;5346786;26;8835;-75
2024/04/22 01:17:33;;;;;;;;;1.25;0.00;;;;;;;;5377730;26;11604;-74
2024/04/22 01:19:58;;;;;;;;;0.00;0.00;;;;;;;;5377963;26;8821;-75
2024/04/22 01:22:24;;;;;;;;;1.00;1.00;;;;;;;;5346765;26;11529;-75
2024/04/22 01:24:50;;;;;;;;;0.00;0.00;;;;;;;;5377698;26;8812;-75
2024/04/22 01:27:16;;;;;;;;;0.00;0.00;;;;;;;;5378086;26;8855;-75
2024/04/22 01:29:41;;;;;;;;;0.00;0.00;;;;;;;;5375223;26;11579;-75
2024/04/22 01:32:06;;;;;;;;;1.00;1.00;;;;;;;;5346882;26;8825;-76
2024/04/22 01:34:31;;;;;;;;;1.75;1.00;;;;;;;;5378727;26;8805;-75
2024/04/22 01:36:57;;;;;;;;;1.00;1.00;;;;;;;;5379017;26;8869;-75
2024/04/22 01:39:22;;;;;;;;;0.00;0.00;;;;;;;;5381467;26;8852;-75
2024/04/22 01:41:47;;;;;;;;;0.00;0.00;;;;;;;;5348674;26;8797;-75
2024/04/22 01:44:13;;;;;;;;;0.00;0.00;;;;;;;;5377510;26;8912;-74
2024/04/22 01:46:38;;;;;;;;;1.00;1.00;;;;;;;;5346070;26;9664;-74
2024/04/22 01:49:03;;;;;;;;;0.75;0.75;;;;;;;;5346233;26;8855;-75
2024/04/22 01:51:28;;;;;;;;;0.00;0.00;;;;;;;;5377413;26;8809;-74
2024/04/22 01:53:54;;;;;;;;;0.00;0.00;;;;;;;;5377361;26;8840;-74
2024/04/22 01:56:19;;;;;;;;;0.00;0.00;;;;;;;;5378189;26;8839;-75
2024/04/22 01:58:44;;;;;;;;;0.00;0.00;;;;;;;;5377556;26;8942;-74
2024/04/22 02:01:10;;;;;;;;;0.00;0.00;;;;;;;;5377462;26;8835;-75
2024/04/22 02:03:35;;;;;;;;;0.00;0.00;;;;;;;;5405311;26;8844;-74
2024/04/22 02:06:00;;;;;;;;;0.00;0.00;;;;;;;;5375682;26;8882;-73
2024/04/22 02:08:25;;;;;;;;;0.00;0.00;;;;;;;;5377216;26;8839;-75
2024/04/22 02:10:51;;;;;;;;;0.25;0.00;;;;;;;;5377458;26;8847;-74
2024/04/22 19:29:14;;;;;;;;;0.00;0.00;;;;;;;;5612073;25;12941;-67
2024/04/22 19:31:40;;;;;;;;;2.00;0.00;;;;;;;;5614379;25;11467;-68
2024/04/22 19:34:05;;;;;;;;;0.00;0.00;;;;;;;;5608812;25;8824;-68
2024/04/22 19:36:30;;;;;;;;;0.00;0.00;;;;;;;;5614735;25;8804;-67
2024/04/22 19:38:56;;;;;;;;;0.00;0.00;;;;;;;;5614875;25;8851;-67
2024/04/22 19:41:21;;;;;;;;;0.00;0.00;;;;;;;;5579482;25;8939;-67
2024/04/22 19:43:46;;;;;;;;;0.00;0.00;;;;;;;;5613825;25;9521;-67
2024/04/22 19:46:11;;;;;;;;;0.00;0.00;;;;;;;;5614275;25;8895;-67
2024/04/22 19:48:37;;;;;;;;;0.50;0.50;;;;;;;;5613524;25;8840;-67
2024/04/22 19:51:02;;;;;;;;;0.00;0.00;;;;;;;;5614811;25;8848;-67
2024/04/22 19:53:27;;;;;;;;;0.00;0.00;;;;;;;;5614457;25;8848;-67
2024/04/22 19:55:52;;;;;;;;;0.00;0.00;;;;;;;;5614628;25;8809;-68
2024/04/22 19:58:18;;;;;;;;;0.00;0.00;;;;;;;;5614295;25;8820;-67
2024/04/22 20:00:43;;;;;;;;;0.25;0.00;;;;;;;;5614812;25;8804;-68
2024/04/22 20:03:09;;;;;;;;;0.00;0.00;;;;;;;;5614533;25;8844;-67
2024/04/22 20:05:34;;;;;;;;;0.00;0.00;;;;;;;;5614894;25;8882;-67
2024/04/22 20:07:59;;;;;;;;;0.00;0.00;;;;;;;;5614994;25;8824;-67
2024/04/22 20:10:25;;;;;;;;;0.00;0.00;;;;;;;;5581236;25;8903;-68
2024/04/22 20:12:50;;;;;;;;;0.00;0.00;;;;;;;;5614587;25;9576;-69
2024/04/22 20:15:26;;;;;;;;;0.00;0.00;;;;;;;;5615323;25;9537;-68
2024/04/22 20:20:37;;;;;;;;;0.00;0.00;;;;;;;;5614130;25;11438;-67
2024/04/22 20:23:03;;;;;;;;;0.00;0.00;;;;;;;;5613922;25;11459;-67
2024/04/22 20:25:28;;;;;;;;;0.00;0.00;;;;;;;;5614108;25;8930;-67
2024/04/22 20:27:53;;;;;;;;;0.00;0.00;;;;;;;;5613762;25;8840;-67
2024/04/22 20:30:20;;;;;;;;;0.00;0.00;;;;;;;;5580651;25;8828;-66
2024/04/22 20:32:48;;;;;;;;;0.00;0.00;;;;;;;;5613501;25;8816;-66
2024/04/22 20:35:13;;;;;;;;;0.50;0.00;;;;;;;;5613659;25;11428;-67
2024/04/22 20:37:39;;;;;;;;;0.00;0.00;;;;;;;;5613315;25;12228;-68
2024/04/22 20:40:04;;;;;;;;;0.00;0.00;;;;;;;;5600060;25;8871;-66
2024/04/22 20:42:30;;;;;;;;;0.50;0.50;;;;;;;;5556744;25;8843;-68
2024/04/22 20:44:55;;;;;;;;;0.50;0.00;;;;;;;;5526162;25;8835;-68
2024/04/22 20:47:20;;;;;;;;;0.00;0.00;;;;;;;;5558994;25;8847;-67
2024/04/22 20:49:46;;;;;;;;;0.00;0.00;;;;;;;;5559063;25;8894;-66
2024/04/22 20:52:11;;;;;;;;;0.00;0.00;;;;;;;;5559734;25;8886;-67
2024/04/22 20:54:36;;;;;;;;;0.75;0.00;;;;;;;;5559121;25;8812;-66
2024/04/22 20:57:01;;;;;;;;;0.75;0.00;;;;;;;;5559274;25;8839;-66
2024/04/22 20:59:26;;;;;;;;;2.00;1.00;;;;;;;;5559695;25;8836;-67
2024/04/22 21:01:53;;;;;;;;;0.00;0.00;;;;;;;;5527196;25;8816;-68
2024/04/22 21:04:18;;;;;;;;;2.00;0.00;;;;;;;;5565196;25;8846;-66
2024/04/22 21:06:43;;;;;;;;;1.75;1.00;;;;;;;;5598643;25;11447;-68
2024/04/22 21:09:08;;;;;;;;;4.00;2.50;;;;;;;;5590465;25;8915;-68
2024/04/22 21:11:34;;;;;;;;;2.00;2.00;;;;;;;;5596727;25;9878;-67
2024/04/22 21:14:00;;;;;;;;;1.00;1.00;;;;;;;;5588253;25;8808;-67
2024/04/22 21:16:25;;;;;;;;;0.00;0.00;;;;;;;;5592505;25;9038;-69
2024/04/22 21:18:51;;;;;;;;;0.25;0.25;;;;;;;;5556070;25;11412;-67
2024/04/22 21:21:17;;;;;;;;;1.25;1.25;;;;;;;;5591615;25;8809;-66
2024/04/22 21:23:42;;;;;;;;;0.00;0.00;;;;;;;;5597013;25;8793;-66
2024/04/22 21:26:08;;;;;;;;;0.00;0.00;;;;;;;;5597503;25;8907;-67
2024/04/22 21:28:33;;;;;;;;;0.00;0.00;;;;;;;;5596938;25;8821;-66
2024/04/22 21:30:58;;;;;;;;;1.00;1.00;;;;;;;;5596195;25;8813;-69
2024/04/22 21:33:24;;;;;;;;;2.00;2.00;;;;;;;;5596534;25;8804;-65
2024/04/22 21:35:49;;;;;;;;;1.25;1.00;;;;;;;;5596471;25;8863;-66
2024/04/22 21:38:14;;;;;;;;;1.00;1.00;;;;;;;;5596255;25;8805;-66
2024/04/22 21:40:39;;;;;;;;;4.00;0.50;;;;;;;;5595800;25;8866;-66
2024/04/22 21:43:05;;;;;;;;;0.00;0.00;;;;;;;;5596213;25;8820;-65
2024/04/22 21:45:31;;;;;;;;;0.00;0.00;;;;;;;;5561964;25;8858;-66
2024/04/22 21:47:56;;;;;;;;;1.00;1.00;;;;;;;;5562096;25;9052;-65
2024/04/22 21:50:22;;;;;;;;;1.25;0.00;;;;;;;;5595265;25;8789;-67
2024/04/22 21:52:47;;;;;;;;;1.00;1.00;;;;;;;;5589519;25;8800;-68
2024/04/22 21:55:14;;;;;;;;;0.75;0.75;;;;;;;;5598741;25;8942;-67
2024/04/22 21:57:58;;;;;;;;;0.50;0.50;;;;;;;;5596324;25;8880;-67
2024/04/22 22:00:42;;;;;;;;;1.00;1.00;;;;;;;;5595070;25;11448;-68
2024/04/22 22:03:27;;;;;;;;;0.00;0.00;;;;;;;;5551786;25;11503;-67
2024/04/22 22:06:11;;;;;;;;;1.00;1.00;;;;;;;;5552761;25;11410;-67
2024/04/22 22:08:37;;;;;;;;;1.00;1.00;;;;;;;;5592405;25;11459;-68
2024/04/22 22:11:02;;;;;;;;;1.00;1.00;;;;;;;;5595613;25;11463;-66
2024/04/22 22:13:27;;;;;;;;;1.25;0.75;;;;;;;;5595755;25;8804;-67
2024/04/22 22:15:53;;;;;;;;;1.00;0.00;;;;;;;;5595688;25;8955;-68
2024/04/22 22:18:18;;;;;;;;;2.00;1.00;;;;;;;;5595559;25;8851;-66
2024/04/22 22:20:44;;;;;;;;;1.00;0.00;;;;;;;;5595538;25;8813;-67
2024/04/22 22:23:09;;;;;;;;;1.00;1.00;;;;;;;;5595649;25;8788;-67
2024/04/22 22:25:34;;;;;;;;;1.00;1.00;;;;;;;;5595692;25;8800;-68
2024/04/22 22:27:59;;;;;;;;;0.00;0.00;;;;;;;;5595295;25;8808;-66
2024/04/22 22:30:25;;;;;;;;;1.00;1.00;;;;;;;;5561904;25;8828;-66
2024/04/22 22:32:51;;;;;;;;;1.50;1.50;;;;;;;;5591626;25;8966;-67
2024/04/22 22:35:16;;;;;;;;;0.75;0.50;;;;;;;;5595282;25;11485;-67
2024/04/22 22:37:41;;;;;;;;;1.00;1.00;;;;;;;;5594755;25;8907;-67
2024/04/22 22:40:07;;;;;;;;;0.50;0.50;;;;;;;;5595185;25;9541;-67
2024/04/22 22:42:32;;;;;;;;;0.00;0.00;;;;;;;;5595554;25;8892;-67
2024/04/22 22:44:58;;;;;;;;;1.00;1.00;;;;;;;;5594962;25;8805;-68
2024/04/22 22:47:23;;;;;;;;;1.00;1.00;;;;;;;;5595082;25;8832;-66
2024/04/22 22:49:48;;;;;;;;;1.00;1.00;;;;;;;;5594672;25;8831;-67
2024/04/22 22:52:14;;;;;;;;;1.00;1.00;;;;;;;;5594827;25;8793;-67
2024/04/22 22:54:39;;;;;;;;;2.50;1.50;;;;;;;;5594247;25;8824;-68
2024/04/22 22:57:05;;;;;;;;;4.25;4.00;;;;;;;;5560735;25;9542;-67
2024/04/22 22:59:30;;;;;;;;;6.75;4.25;;;;;;;;5561038;25;9581;-67
2024/04/22 23:01:56;;;;;;;;;1.75;1.75;;;;;;;;5560690;25;8844;-68
2024/04/22 23:04:21;;;;;;;;;1.00;1.00;;;;;;;;5589797;25;8851;-66
2024/04/22 23:06:47;;;;;;;;;0.50;0.00;;;;;;;;5594201;25;11675;-66
2024/04/22 23:09:12;;;;;;;;;0.00;0.00;;;;;;;;5594181;25;8816;-66
2024/04/22 23:11:38;;;;;;;;;0.75;0.00;;;;;;;;5594465;25;8804;-67
2024/04/22 23:14:03;;;;;;;;;0.00;0.00;;;;;;;;5594743;25;8820;-67
2024/04/22 23:16:29;;;;;;;;;2.00;0.25;;;;;;;;5594161;25;8821;-67
2024/04/22 23:18:54;;;;;;;;;0.00;0.00;;;;;;;;5594372;25;8891;-67
2024/04/22 23:21:19;;;;;;;;;2.00;1.00;;;;;;;;5594863;25;9034;-66
2024/04/22 23:23:45;;;;;;;;;0.00;0.00;;;;;;;;5594597;25;9559;-68
2024/04/22 23:26:10;;;;;;;;;0.00;0.00;;;;;;;;5595935;25;8816;-67
2024/04/22 23:28:35;;;;;;;;;0.00;0.00;;;;;;;;5596051;25;8852;-66
2024/04/22 23:31:00;;;;;;;;;0.00;0.00;;;;;;;;5594017;25;8939;-67
2024/04/22 23:33:26;;;;;;;;;0.00;0.00;;;;;;;;5591826;25;8800;-66
2024/04/22 23:35:51;;;;;;;;;0.00;0.00;;;;;;;;5594025;25;8911;-66
2024/04/22 23:38:16;;;;;;;;;0.00;0.00;;;;;;;;5594092;25;8906;-66
2024/04/22 23:40:42;;;;;;;;;0.25;0.00;;;;;;;;5593893;25;8895;-66
2024/04/22 23:43:07;;;;;;;;;0.00;0.00;;;;;;;;5560157;25;8911;-66
2024/04/22 23:45:33;;;;;;;;;0.00;0.00;;;;;;;;5593665;25;8907;-66
2024/04/22 23:47:58;;;;;;;;;0.00;0.00;;;;;;;;5593420;25;8804;-67
2024/04/22 23:50:23;;;;;;;;;0.00;0.00;;;;;;;;5593950;25;8820;-66
2024/04/22 23:52:49;;;;;;;;;0.25;0.00;;;;;;;;5593600;25;8895;-67
2024/04/22 23:55:14;;;;;;;;;0.00;0.00;;;;;;;;5593714;25;8801;-68
2024/04/22 23:57:39;;;;;;;;;0.00;0.00;;;;;;;;5593875;25;8890;-67
